createdAt,value
2018-11-14T08:36:43.765Z,11.10
2018-11-14T08:42:11.618Z,11.10
2018-11-14T09:24:24.318Z,11.60
2018-11-14T09:29:49.409Z,15.30
2018-11-14T09:35:00.117Z,11.80
2018-11-14T09:50:51.562Z,16.70
2018-11-14T09:56:15.625Z,15.10
2018-11-14T10:01:42.333Z,12.60
2018-11-14T10:06:53.853Z,12.40
2018-11-14T10:12:18.372Z,13.70
2018-11-14T10:17:41.127Z,20.90
2018-11-14T10:23:01.210Z,16.80
2018-11-14T10:28:00.814Z,14.40
2018-11-14T10:33:23.800Z,16.80
2018-11-14T10:38:20.108Z,13.10
2018-11-14T10:43:19.325Z,13.50
2018-11-14T10:48:19.566Z,15.40
2018-11-14T10:53:22.662Z,15.30
2018-11-14T10:58:26.378Z,13.40
2018-11-14T11:03:22.024Z,11.90
2018-11-14T11:08:22.789Z,11.30
2018-11-14T11:13:25.931Z,15.50
2018-11-14T11:18:21.039Z,15.80
2018-11-14T11:23:26.385Z,13.20
2018-11-14T11:28:59.547Z,14.70
2018-11-14T11:33:59.361Z,15.50
2018-11-14T11:39:18.856Z,13.60
2018-11-14T11:44:18.774Z,16.80
2018-11-14T11:49:21.541Z,14.20
2018-11-14T11:54:26.520Z,15.80
2018-11-14T11:59:39.993Z,14.40
2018-11-14T12:04:47.013Z,14.50
2018-11-14T12:09:42.966Z,13.70
2018-11-14T12:14:47.057Z,12.60
2018-11-14T12:19:50.207Z,13.10
2018-11-14T12:24:46.272Z,13.20
2018-11-14T12:29:45.699Z,13.30
2018-11-14T12:40:36.739Z,15.50
2018-11-14T12:45:33.272Z,12.40
2018-11-14T12:50:29.290Z,12.50
2018-11-14T12:55:23.085Z,11.90
2018-11-14T13:00:17.400Z,11.70
2018-11-14T16:06:57.679Z,3.60
2018-11-14T16:12:11.555Z,4.50
2018-11-14T16:17:37.982Z,5.70
2018-11-14T16:22:57.087Z,4.00
2018-11-14T17:32:29.669Z,5.90
2018-11-14T17:53:52.044Z,5.40
2018-11-14T18:25:22.788Z,6.80
2018-11-14T18:41:06.483Z,5.50
2018-11-14T19:17:55.185Z,7.70
2018-11-14T19:23:05.280Z,5.50
